sensor_id;sensor_type;location;lat;lon;timestamp;pressure;altitude;pressure_sealevel;temperature
29701;BMP280;57917;51.380;-0.176;2023-02-15T00:10:36;102333.22;;;5.09
29701;BMP280;57917;51.380;-0.176;2023-02-15T00:16:27;102324.28;;;4.97
29701;BMP280;57917;51.380;-0.176;2023-02-15T00:22:15;102314.63;;;5.11
29701;BMP280;57917;51.380;-0.176;2023-02-15T00:28:02;102292.69;;;5.25
29701;BMP280;57917;51.380;-0.176;2023-02-15T00:33:49;102296.25;;;5.52
29701;BMP280;57917;51.380;-0.176;2023-02-15T00:39:37;102291.41;;;5.62
29701;BMP280;57917;51.380;-0.176;2023-02-15T00:45:26;102267.84;;;5.27
29701;BMP280;57917;51.380;-0.176;2023-02-15T00:51:31;102268.88;;;4.86
29701;BMP280;57917;51.380;-0.176;2023-02-15T00:57:40;102287.09;;;4.87
29701;BMP280;57917;51.380;-0.176;2023-02-15T01:03:26;102303.97;;;5.12
29701;BMP280;57917;51.380;-0.176;2023-02-15T01:09:16;102292.81;;;5.58
29701;BMP280;57917;51.380;-0.176;2023-02-15T01:15:52;102266.78;;;6.15
29701;BMP280;57917;51.380;-0.176;2023-02-15T01:22:06;102256.78;;;6.76
29701;BMP280;57917;51.380;-0.176;2023-02-15T01:29:19;102267.41;;;7.00
29701;BMP280;57917;51.380;-0.176;2023-02-15T01:35:27;102244.31;;;7.02
29701;BMP280;57917;51.380;-0.176;2023-02-15T01:41:14;102228.72;;;7.01
29701;BMP280;57917;51.380;-0.176;2023-02-15T01:47:44;102219.25;;;6.93
29701;BMP280;57917;51.380;-0.176;2023-02-15T02:01:33;102211.47;;;7.05
29701;BMP280;57917;51.380;-0.176;2023-02-15T02:08:13;102209.31;;;7.02
29701;BMP280;57917;51.380;-0.176;2023-02-15T02:14:37;102192.44;;;7.09
29701;BMP280;57917;51.380;-0.176;2023-02-15T02:43:44;102179.41;;;6.83
29701;BMP280;57917;51.380;-0.176;2023-02-15T02:49:35;102187.63;;;7.00
29701;BMP280;57917;51.380;-0.176;2023-02-15T02:55:31;102184.81;;;6.95
29701;BMP280;57917;51.380;-0.176;2023-02-15T03:01:29;102166.91;;;7.03
29701;BMP280;57917;51.380;-0.176;2023-02-15T03:07:22;102169.00;;;6.95
29701;BMP280;57917;51.380;-0.176;2023-02-15T03:13:19;102171.03;;;6.93
29701;BMP280;57917;51.380;-0.176;2023-02-15T03:19:25;102167.63;;;6.86
29701;BMP280;57917;51.380;-0.176;2023-02-15T03:25:32;102157.53;;;6.89
29701;BMP280;57917;51.380;-0.176;2023-02-15T03:31:21;102150.53;;;6.64
29701;BMP280;57917;51.380;-0.176;2023-02-15T03:49:53;102121.44;;;6.59
29701;BMP280;57917;51.380;-0.176;2023-02-15T03:55:46;102116.19;;;6.52
29701;BMP280;57917;51.380;-0.176;2023-02-15T04:08:04;102104.91;;;6.38
29701;BMP280;57917;51.380;-0.176;2023-02-15T04:14:37;102104.53;;;6.35
29701;BMP280;57917;51.380;-0.176;2023-02-15T04:21:08;102098.66;;;6.33
29701;BMP280;57917;51.380;-0.176;2023-02-15T04:27:32;102102.66;;;6.42
29701;BMP280;57917;51.380;-0.176;2023-02-15T04:33:19;102103.06;;;6.39
29701;BMP280;57917;51.380;-0.176;2023-02-15T04:39:07;102104.06;;;6.51
29701;BMP280;57917;51.380;-0.176;2023-02-15T04:44:54;102088.63;;;6.55
29701;BMP280;57917;51.380;-0.176;2023-02-15T04:50:41;102094.91;;;6.60
29701;BMP280;57917;51.380;-0.176;2023-02-15T04:56:30;102094.91;;;6.60
29701;BMP280;57917;51.380;-0.176;2023-02-15T05:02:19;102089.31;;;6.81
29701;BMP280;57917;51.380;-0.176;2023-02-15T05:08:06;102088.41;;;6.94
29701;BMP280;57917;51.380;-0.176;2023-02-15T05:14:07;102078.88;;;6.99
29701;BMP280;57917;51.380;-0.176;2023-02-15T05:27:04;102062.63;;;7.02
29701;BMP280;57917;51.380;-0.176;2023-02-15T05:33:15;102064.69;;;7.25
29701;BMP280;57917;51.380;-0.176;2023-02-15T05:46:27;102045.72;;;7.16
29701;BMP280;57917;51.380;-0.176;2023-02-15T05:52:20;102053.59;;;7.16
29701;BMP280;57917;51.380;-0.176;2023-02-15T05:58:18;102047.19;;;7.12
29701;BMP280;57917;51.380;-0.176;2023-02-15T06:04:38;102045.81;;;7.03
29701;BMP280;57917;51.380;-0.176;2023-02-15T06:17:56;102044.94;;;7.09
29701;BMP280;57917;51.380;-0.176;2023-02-15T06:23:49;102040.72;;;7.08
29701;BMP280;57917;51.380;-0.176;2023-02-15T06:29:39;102042.16;;;7.04
29701;BMP280;57917;51.380;-0.176;2023-02-15T06:35:26;102037.91;;;7.03
29701;BMP280;57917;51.380;-0.176;2023-02-15T06:41:13;102041.78;;;7.01
29701;BMP280;57917;51.380;-0.176;2023-02-15T06:47:04;102040.69;;;6.84
29701;BMP280;57917;51.380;-0.176;2023-02-15T06:53:00;102061.66;;;6.66
29701;BMP280;57917;51.380;-0.176;2023-02-15T07:22:28;102070.19;;;6.92
29701;BMP280;57917;51.380;-0.176;2023-02-15T07:28:35;102073.94;;;7.27
29701;BMP280;57917;51.380;-0.176;2023-02-15T07:35:00;102073.22;;;7.20
29701;BMP280;57917;51.380;-0.176;2023-02-15T07:41:41;102073.88;;;7.16
29701;BMP280;57917;51.380;-0.176;2023-02-15T07:48:42;102080.69;;;7.23
29701;BMP280;57917;51.380;-0.176;2023-02-15T07:54:43;102087.63;;;7.42
29701;BMP280;57917;51.380;-0.176;2023-02-15T08:00:29;102087.13;;;7.52
29701;BMP280;57917;51.380;-0.176;2023-02-15T08:06:21;102095.00;;;7.77
29701;BMP280;57917;51.380;-0.176;2023-02-15T08:20:18;102089.28;;;8.16
29701;BMP280;57917;51.380;-0.176;2023-02-15T08:27:04;102081.84;;;8.24
29701;BMP280;57917;51.380;-0.176;2023-02-15T08:32:52;102089.41;;;8.39
29701;BMP280;57917;51.380;-0.176;2023-02-15T08:38:40;102087.09;;;8.60
29701;BMP280;57917;51.380;-0.176;2023-02-15T08:44:28;102081.59;;;8.73
29701;BMP280;57917;51.380;-0.176;2023-02-15T08:50:15;102067.75;;;9.01
29701;BMP280;57917;51.380;-0.176;2023-02-15T08:56:03;102063.75;;;9.33
29701;BMP280;57917;51.380;-0.176;2023-02-15T09:01:53;102070.94;;;9.72
29701;BMP280;57917;51.380;-0.176;2023-02-15T09:07:42;102064.34;;;10.15
29701;BMP280;57917;51.380;-0.176;2023-02-15T09:13:31;102063.09;;;10.34
29701;BMP280;57917;51.380;-0.176;2023-02-15T09:19:20;102051.09;;;10.43
29701;BMP280;57917;51.380;-0.176;2023-02-15T09:25:10;102059.63;;;10.45
29701;BMP280;57917;51.380;-0.176;2023-02-15T09:31:12;102049.44;;;10.25
29701;BMP280;57917;51.380;-0.176;2023-02-15T09:36:59;102052.00;;;10.65
29701;BMP280;57917;51.380;-0.176;2023-02-15T09:43:34;102047.88;;;11.07
29701;BMP280;57917;51.380;-0.176;2023-02-15T10:26:45;102021.03;;;12.11
29701;BMP280;57917;51.380;-0.176;2023-02-15T10:32:57;102014.81;;;12.27
29701;BMP280;57917;51.380;-0.176;2023-02-15T10:38:52;102029.34;;;12.51
29701;BMP280;57917;51.380;-0.176;2023-02-15T11:04:55;101998.25;;;13.85
29701;BMP280;57917;51.380;-0.176;2023-02-15T11:10:52;101994.84;;;14.05
29701;BMP280;57917;51.380;-0.176;2023-02-15T11:16:44;101990.03;;;14.17
29701;BMP280;57917;51.380;-0.176;2023-02-15T11:22:33;101983.09;;;14.21
29701;BMP280;57917;51.380;-0.176;2023-02-15T11:28:29;101975.06;;;14.51
29701;BMP280;57917;51.380;-0.176;2023-02-15T11:40:22;101950.41;;;14.94
29701;BMP280;57917;51.380;-0.176;2023-02-15T11:46:13;101949.31;;;15.05
29701;BMP280;57917;51.380;-0.176;2023-02-15T11:52:05;101953.78;;;15.10
29701;BMP280;57917;51.380;-0.176;2023-02-15T12:04:28;101952.47;;;15.07
29701;BMP280;57917;51.380;-0.176;2023-02-15T12:10:26;101959.38;;;15.08
29701;BMP280;57917;51.380;-0.176;2023-02-15T12:16:14;101952.38;;;15.22
29701;BMP280;57917;51.380;-0.176;2023-02-15T12:22:06;101939.09;;;15.12
29701;BMP280;57917;51.380;-0.176;2023-02-15T12:40:29;101901.38;;;15.34
29701;BMP280;57917;51.380;-0.176;2023-02-15T12:46:26;101912.41;;;15.17
29701;BMP280;57917;51.380;-0.176;2023-02-15T12:58:18;101897.75;;;15.15
29701;BMP280;57917;51.380;-0.176;2023-02-15T13:04:26;101899.53;;;15.24
29701;BMP280;57917;51.380;-0.176;2023-02-15T13:10:52;101885.34;;;15.29
29701;BMP280;57917;51.380;-0.176;2023-02-15T13:16:41;101897.19;;;15.51
29701;BMP280;57917;51.380;-0.176;2023-02-15T13:22:40;101878.59;;;15.41
29701;BMP280;57917;51.380;-0.176;2023-02-15T13:28:49;101863.56;;;15.22
29701;BMP280;57917;51.380;-0.176;2023-02-15T13:34:39;101856.34;;;15.22
29701;BMP280;57917;51.380;-0.176;2023-02-15T13:52:24;101841.50;;;15.45
29701;BMP280;57917;51.380;-0.176;2023-02-15T14:17:03;101826.69;;;15.57
29701;BMP280;57917;51.380;-0.176;2023-02-15T14:23:05;101829.00;;;15.35
29701;BMP280;57917;51.380;-0.176;2023-02-15T14:35:09;101831.63;;;15.12
29701;BMP280;57917;51.380;-0.176;2023-02-15T14:41:17;101822.25;;;15.14
29701;BMP280;57917;51.380;-0.176;2023-02-15T14:47:30;101831.38;;;15.08
29701;BMP280;57917;51.380;-0.176;2023-02-15T14:53:33;101834.09;;;15.03
29701;BMP280;57917;51.380;-0.176;2023-02-15T14:59:23;101833.41;;;14.83
29701;BMP280;57917;51.380;-0.176;2023-02-15T15:05:20;101831.06;;;14.76
29701;BMP280;57917;51.380;-0.176;2023-02-15T15:11:43;101833.78;;;14.61
29701;BMP280;57917;51.380;-0.176;2023-02-15T15:23:43;101849.28;;;14.59
29701;BMP280;57917;51.380;-0.176;2023-02-15T15:29:40;101854.38;;;14.45
29701;BMP280;57917;51.380;-0.176;2023-02-15T15:48:08;101840.56;;;14.38
29701;BMP280;57917;51.380;-0.176;2023-02-15T15:54:02;101841.59;;;14.37
29701;BMP280;57917;51.380;-0.176;2023-02-15T15:59:50;101846.69;;;14.34
29701;BMP280;57917;51.380;-0.176;2023-02-15T16:05:38;101843.50;;;14.27
29701;BMP280;57917;51.380;-0.176;2023-02-15T16:11:27;101853.13;;;14.23
29701;BMP280;57917;51.380;-0.176;2023-02-15T16:17:25;101842.47;;;14.08
29701;BMP280;57917;51.380;-0.176;2023-02-15T16:30:41;101852.13;;;13.79
29701;BMP280;57917;51.380;-0.176;2023-02-15T17:15:06;101861.06;;;12.88
29701;BMP280;57917;51.380;-0.176;2023-02-15T17:35:26;101857.88;;;12.91
29701;BMP280;57917;51.380;-0.176;2023-02-15T17:41:13;101850.97;;;12.85
29701;BMP280;57917;51.380;-0.176;2023-02-15T17:47:06;101847.75;;;12.77
29701;BMP280;57917;51.380;-0.176;2023-02-15T17:53:02;101855.75;;;12.82
29701;BMP280;57917;51.380;-0.176;2023-02-15T17:58:49;101841.59;;;12.67
29701;BMP280;57917;51.380;-0.176;2023-02-15T18:04:36;101848.78;;;12.71
29701;BMP280;57917;51.380;-0.176;2023-02-15T18:11:11;101864.66;;;12.51
29701;BMP280;57917;51.380;-0.176;2023-02-15T18:17:18;101870.47;;;12.48
29701;BMP280;57917;51.380;-0.176;2023-02-15T18:23:15;101878.59;;;12.32
29701;BMP280;57917;51.380;-0.176;2023-02-15T18:29:06;101892.53;;;12.07
29701;BMP280;57917;51.380;-0.176;2023-02-15T18:34:57;101891.59;;;11.92
29701;BMP280;57917;51.380;-0.176;2023-02-15T18:40:46;101892.63;;;11.86
29701;BMP280;57917;51.380;-0.176;2023-02-15T18:52:56;101871.00;;;11.72
29701;BMP280;57917;51.380;-0.176;2023-02-15T18:58:48;101879.09;;;11.61
29701;BMP280;57917;51.380;-0.176;2023-02-15T19:04:39;101891.22;;;11.52
29701;BMP280;57917;51.380;-0.176;2023-02-15T19:10:32;101887.72;;;11.46
29701;BMP280;57917;51.380;-0.176;2023-02-15T19:16:33;101892.44;;;11.39
29701;BMP280;57917;51.380;-0.176;2023-02-15T19:22:26;101889.19;;;11.32
29701;BMP280;57917;51.380;-0.176;2023-02-15T19:28:18;101899.59;;;11.17
29701;BMP280;57917;51.380;-0.176;2023-02-15T19:34:13;101922.91;;;11.15
29701;BMP280;57917;51.380;-0.176;2023-02-15T19:40:02;101929.06;;;11.20
29701;BMP280;57917;51.380;-0.176;2023-02-15T19:45:49;101936.84;;;11.27
29701;BMP280;57917;51.380;-0.176;2023-02-15T19:51:40;101932.22;;;11.17
29701;BMP280;57917;51.380;-0.176;2023-02-15T19:57:27;101939.59;;;11.15
29701;BMP280;57917;51.380;-0.176;2023-02-15T20:03:15;101943.63;;;11.18
29701;BMP280;57917;51.380;-0.176;2023-02-15T20:09:03;101949.41;;;11.15
29701;BMP280;57917;51.380;-0.176;2023-02-15T20:14:50;101955.25;;;11.17
29701;BMP280;57917;51.380;-0.176;2023-02-15T20:20:48;101971.41;;;11.15
29701;BMP280;57917;51.380;-0.176;2023-02-15T20:26:37;101969.25;;;11.12
29701;BMP280;57917;51.380;-0.176;2023-02-15T20:32:25;101968.66;;;11.27
29701;BMP280;57917;51.380;-0.176;2023-02-15T20:38:24;101960.69;;;11.27
29701;BMP280;57917;51.380;-0.176;2023-02-15T20:44:23;101967.16;;;11.36
29701;BMP280;57917;51.380;-0.176;2023-02-15T20:50:11;101963.88;;;11.29
29701;BMP280;57917;51.380;-0.176;2023-02-15T20:55:59;101955.03;;;11.18
29701;BMP280;57917;51.380;-0.176;2023-02-15T21:01:48;101961.13;;;11.19
29701;BMP280;57917;51.380;-0.176;2023-02-15T21:07:38;101965.09;;;11.16
29701;BMP280;57917;51.380;-0.176;2023-02-15T21:13:33;101944.19;;;11.20
29701;BMP280;57917;51.380;-0.176;2023-02-15T21:19:28;101945.72;;;11.16
29701;BMP280;57917;51.380;-0.176;2023-02-15T21:25:24;101948.97;;;11.23
29701;BMP280;57917;51.380;-0.176;2023-02-15T21:31:19;101947.88;;;11.41
29701;BMP280;57917;51.380;-0.176;2023-02-15T21:37:36;101934.13;;;11.22
29701;BMP280;57917;51.380;-0.176;2023-02-15T21:43:32;101936.13;;;11.10
29701;BMP280;57917;51.380;-0.176;2023-02-15T21:49:41;101951.59;;;11.18
29701;BMP280;57917;51.380;-0.176;2023-02-15T21:55:31;101950.34;;;11.25
29701;BMP280;57917;51.380;-0.176;2023-02-15T22:01:21;101951.69;;;11.28
29701;BMP280;57917;51.380;-0.176;2023-02-15T22:07:15;101947.69;;;11.25
29701;BMP280;57917;51.380;-0.176;2023-02-15T22:13:33;101950.97;;;11.32
29701;BMP280;57917;51.380;-0.176;2023-02-15T22:19:20;101949.03;;;11.28
29701;BMP280;57917;51.380;-0.176;2023-02-15T22:25:15;101949.13;;;11.33
29701;BMP280;57917;51.380;-0.176;2023-02-15T22:31:06;101945.84;;;11.26
29701;BMP280;57917;51.380;-0.176;2023-02-15T22:36:57;101942.47;;;11.35
29701;BMP280;57917;51.380;-0.176;2023-02-15T22:42:51;101941.75;;;11.40
29701;BMP280;57917;51.380;-0.176;2023-02-15T22:48:48;101938.06;;;11.41
29701;BMP280;57917;51.380;-0.176;2023-02-15T22:54:48;101949.53;;;11.47
29701;BMP280;57917;51.380;-0.176;2023-02-15T23:00:38;101941.81;;;11.45
29701;BMP280;57917;51.380;-0.176;2023-02-15T23:06:26;101942.09;;;11.70
29701;BMP280;57917;51.380;-0.176;2023-02-15T23:12:49;101946.72;;;11.58
29701;BMP280;57917;51.380;-0.176;2023-02-15T23:18:57;101942.25;;;11.37
29701;BMP280;57917;51.380;-0.176;2023-02-15T23:24:56;101941.56;;;11.47
29701;BMP280;57917;51.380;-0.176;2023-02-15T23:30:43;101942.97;;;11.54
29701;BMP280;57917;51.380;-0.176;2023-02-15T23:36:45;101954.19;;;11.61
29701;BMP280;57917;51.380;-0.176;2023-02-15T23:42:33;101953.56;;;11.54
29701;BMP280;57917;51.380;-0.176;2023-02-15T23:48:58;101969.09;;;11.67
29701;BMP280;57917;51.380;-0.176;2023-02-15T23:54:46;101960.47;;;11.77
